createdAt,value
2022-11-10T00:01:09.553Z,3.90
2022-11-10T00:03:39.039Z,3.93
2022-11-10T00:06:08.280Z,3.30
2022-11-10T00:08:35.807Z,3.80
2022-11-10T00:11:09.888Z,3.77
2022-11-10T00:13:56.575Z,3.90
2022-11-10T00:16:42.903Z,3.67
2022-11-10T00:19:11.000Z,3.63
2022-11-10T00:21:37.973Z,4.87
2022-11-10T00:24:05.540Z,3.83
2022-11-10T00:26:32.468Z,3.90
2022-11-10T00:28:59.347Z,4.10
2022-11-10T00:31:28.545Z,4.17
2022-11-10T00:33:56.067Z,3.80
2022-11-10T00:36:23.661Z,4.47
2022-11-10T00:38:51.955Z,3.10
2022-11-10T00:41:19.298Z,3.73
2022-11-10T00:43:46.201Z,3.67
2022-11-10T00:46:13.574Z,3.70
2022-11-10T00:48:40.652Z,3.83
2022-11-10T00:51:09.637Z,4.53
2022-11-10T00:53:36.615Z,3.70
2022-11-10T00:56:03.543Z,4.23
2022-11-10T00:58:30.490Z,3.77
2022-11-10T01:01:05.371Z,4.17
2022-11-10T01:03:33.111Z,4.10
2022-11-10T01:06:05.076Z,3.47
2022-11-10T01:08:32.036Z,3.87
2022-11-10T01:11:13.702Z,4.50
2022-11-10T01:13:40.843Z,3.83
2022-11-10T01:16:20.042Z,4.40
2022-11-10T01:18:52.982Z,3.87
2022-11-10T01:21:21.947Z,3.80
2022-11-10T01:23:50.654Z,3.40
2022-11-10T01:26:18.412Z,4.10
2022-11-10T01:28:46.894Z,3.80
2022-11-10T01:31:17.932Z,4.20
2022-11-10T01:33:45.013Z,4.37
2022-11-10T01:36:12.722Z,3.90
2022-11-10T01:38:42.330Z,4.17
2022-11-10T01:41:11.996Z,4.03
2022-11-10T01:43:39.225Z,4.47
2022-11-10T01:46:10.351Z,4.53
2022-11-10T01:48:43.977Z,4.60
2022-11-10T01:51:28.847Z,4.57
2022-11-10T01:54:09.651Z,4.67
2022-11-10T01:56:43.420Z,4.80
2022-11-10T01:59:16.923Z,4.43
2022-11-10T02:01:48.037Z,3.90
2022-11-10T02:04:17.970Z,4.00
2022-11-10T02:06:47.670Z,3.80
2022-11-10T02:09:15.159Z,4.20
2022-11-10T02:11:43.242Z,5.23
2022-11-10T02:14:11.456Z,3.40
2022-11-10T02:16:39.723Z,2.93
2022-11-10T02:19:21.646Z,3.60
2022-11-10T02:21:48.674Z,3.43
2022-11-10T02:24:15.987Z,3.53
2022-11-10T02:26:50.475Z,3.33
2022-11-10T02:29:17.382Z,3.30
2022-11-10T02:31:44.525Z,3.57
2022-11-10T02:34:11.536Z,2.73
2022-11-10T02:36:39.685Z,3.07
2022-11-10T02:39:06.603Z,3.20
2022-11-10T02:41:34.590Z,2.70
2022-11-10T02:44:04.432Z,3.03
2022-11-10T02:46:31.325Z,2.90
2022-11-10T02:48:58.313Z,3.00
2022-11-10T02:51:25.301Z,4.13
2022-11-10T02:53:52.264Z,4.17
2022-11-10T02:56:19.124Z,3.63
2022-11-10T02:58:48.770Z,3.43
2022-11-10T03:01:15.697Z,3.57
2022-11-10T03:03:42.858Z,3.63
2022-11-10T03:06:09.755Z,3.43
2022-11-10T03:08:37.799Z,3.60
2022-11-10T03:11:05.035Z,3.17
2022-11-10T03:13:51.635Z,3.57
2022-11-10T03:16:21.418Z,3.33
2022-11-10T03:18:49.350Z,2.80
2022-11-10T03:21:16.262Z,3.20
2022-11-10T03:23:43.186Z,2.57
2022-11-10T03:26:10.111Z,2.80
2022-11-10T03:28:38.047Z,2.20
2022-11-10T03:31:05.223Z,2.83
2022-11-10T03:33:32.134Z,3.00
2022-11-10T03:35:59.011Z,3.17
2022-11-10T03:38:25.955Z,3.70
2022-11-10T03:43:39.853Z,3.50
2022-11-10T03:46:07.037Z,4.20
2022-11-10T03:48:34.010Z,4.13
2022-11-10T03:51:00.971Z,4.37
2022-11-10T03:53:27.845Z,3.90
2022-11-10T03:55:54.759Z,4.40
2022-11-10T03:58:21.675Z,4.63
2022-11-10T04:00:48.706Z,3.83
2022-11-10T04:03:16.040Z,3.70
2022-11-10T04:06:03.219Z,4.50
2022-11-10T04:08:48.593Z,3.50
2022-11-10T04:11:38.640Z,4.13
2022-11-10T04:14:23.954Z,4.20
2022-11-10T04:16:50.867Z,3.73
2022-11-10T04:19:17.822Z,4.80
2022-11-10T04:21:44.694Z,4.03
2022-11-10T04:24:11.568Z,4.00
2022-11-10T04:26:38.983Z,4.03
2022-11-10T04:29:11.036Z,4.60
2022-11-10T04:31:41.414Z,5.00
2022-11-10T04:34:12.955Z,4.63
2022-11-10T04:36:42.869Z,5.47
2022-11-10T04:39:10.713Z,5.00
2022-11-10T04:41:38.148Z,5.13
2022-11-10T04:44:06.128Z,4.33
2022-11-10T04:46:37.679Z,3.93
2022-11-10T04:49:07.000Z,3.80
2022-11-10T04:51:38.266Z,3.70
2022-11-10T04:54:07.574Z,3.67
2022-11-10T04:56:34.928Z,4.10
2022-11-10T04:59:01.905Z,4.50
2022-11-10T05:01:29.069Z,3.57
2022-11-10T05:03:56.404Z,3.70
2022-11-10T05:06:23.877Z,4.00
2022-11-10T05:08:51.594Z,3.83
2022-11-10T05:11:19.036Z,3.60
2022-11-10T05:13:46.554Z,3.23
2022-11-10T05:16:14.071Z,3.10
2022-11-10T05:18:41.618Z,3.53
2022-11-10T05:21:08.749Z,3.97
2022-11-10T05:23:38.189Z,2.80
2022-11-10T05:26:17.401Z,3.17
2022-11-10T05:28:45.874Z,3.40
2022-11-10T05:31:13.434Z,3.50
2022-11-10T05:33:41.149Z,4.10
2022-11-10T05:36:09.990Z,6.63
2022-11-10T05:38:42.937Z,5.40
2022-11-10T05:41:11.191Z,5.17
2022-11-10T05:43:38.250Z,4.13
2022-11-10T05:46:05.392Z,4.03
2022-11-10T05:48:32.256Z,3.90
2022-11-10T05:50:59.139Z,3.77
2022-11-10T05:53:26.148Z,3.87
2022-11-10T05:55:53.060Z,4.17
2022-11-10T05:58:20.008Z,4.20
2022-11-10T06:00:47.024Z,5.30
2022-11-10T06:03:17.955Z,4.60
2022-11-10T06:05:45.669Z,4.60
2022-11-10T06:08:12.917Z,4.77
2022-11-10T06:10:40.142Z,4.73
2022-11-10T06:13:07.101Z,4.47
2022-11-10T06:15:34.146Z,5.50
2022-11-10T06:18:01.032Z,5.07
2022-11-10T06:20:28.467Z,4.77
2022-11-10T06:23:03.948Z,6.20
2022-11-10T06:25:34.516Z,5.13
2022-11-10T06:28:02.699Z,4.83
2022-11-10T06:30:32.864Z,4.70
2022-11-10T06:32:59.838Z,5.10
2022-11-10T06:35:27.443Z,4.83
2022-11-10T06:38:03.838Z,6.00
2022-11-10T06:40:31.973Z,4.33
2022-11-10T06:42:59.420Z,3.97
2022-11-10T06:45:28.554Z,3.90
2022-11-10T06:48:07.676Z,5.10
2022-11-10T06:50:34.680Z,4.83
2022-11-10T06:53:01.805Z,4.47
2022-11-10T06:55:29.827Z,4.73
2022-11-10T06:57:57.622Z,3.17
2022-11-10T07:00:28.883Z,2.93
2022-11-10T07:03:13.002Z,2.87
2022-11-10T07:05:40.154Z,3.20
2022-11-10T07:08:16.805Z,3.00
2022-11-10T07:10:52.057Z,4.00
2022-11-10T07:13:21.426Z,3.53
2022-11-10T07:15:48.629Z,3.60
2022-11-10T07:18:15.571Z,2.87
2022-11-10T07:20:42.605Z,2.70
2022-11-10T07:23:09.606Z,3.17
2022-11-10T07:25:37.903Z,3.90
2022-11-10T07:28:07.596Z,4.10
2022-11-10T07:30:35.712Z,3.93
2022-11-10T07:33:05.943Z,3.40
2022-11-10T07:35:34.411Z,4.07
2022-11-10T07:38:14.668Z,4.83
2022-11-10T07:40:41.588Z,4.87
2022-11-10T07:43:08.611Z,4.37
2022-11-10T07:45:35.584Z,4.20
2022-11-10T07:48:05.846Z,4.17
2022-11-10T07:50:34.054Z,4.67
2022-11-10T07:53:10.277Z,4.27
2022-11-10T07:55:39.446Z,4.80
2022-11-10T07:58:07.335Z,4.60
2022-11-10T08:00:37.489Z,5.30
2022-11-10T08:03:13.640Z,4.67
2022-11-10T08:05:41.210Z,4.73
2022-11-10T08:08:09.655Z,5.23
2022-11-10T08:10:37.257Z,4.93
2022-11-10T08:13:08.196Z,5.40
2022-11-10T08:15:35.673Z,5.30
2022-11-10T08:18:19.595Z,5.40
2022-11-10T08:20:46.894Z,5.77
2022-11-10T08:23:14.502Z,5.10
2022-11-10T08:25:44.573Z,5.77
2022-11-10T08:28:17.342Z,5.60
2022-11-10T08:30:47.132Z,4.90
2022-11-10T08:33:18.702Z,4.20
2022-11-10T08:35:48.906Z,4.53
2022-11-10T08:38:23.097Z,3.80
2022-11-10T08:40:50.431Z,3.40
2022-11-10T08:43:18.579Z,2.53
2022-11-10T08:45:46.166Z,2.70
2022-11-10T08:48:17.986Z,2.90
2022-11-10T08:50:48.884Z,2.60
2022-11-10T08:53:19.747Z,3.23
2022-11-10T08:55:47.898Z,3.10
2022-11-10T08:58:20.146Z,3.60
2022-11-10T09:00:47.881Z,3.37
2022-11-10T09:03:25.957Z,2.67
2022-11-10T09:05:58.710Z,2.40
2022-11-10T09:08:26.893Z,2.80
2022-11-10T09:10:53.847Z,3.33
2022-11-10T09:13:29.620Z,3.40
2022-11-10T09:16:03.014Z,3.50
2022-11-10T09:18:31.715Z,3.03
2022-11-10T09:21:04.258Z,2.90
2022-11-10T09:23:33.212Z,4.60
2022-11-10T09:26:00.113Z,3.37
2022-11-10T09:28:27.038Z,2.57
2022-11-10T09:30:54.076Z,3.20
2022-11-10T09:33:21.374Z,3.30
2022-11-10T09:35:57.496Z,2.33
2022-11-10T09:38:24.631Z,2.57
2022-11-10T09:41:06.865Z,2.80
2022-11-10T09:44:14.415Z,2.97
2022-11-10T09:46:49.318Z,2.67
2022-11-10T09:49:38.846Z,2.93
2022-11-10T09:52:07.291Z,2.10
2022-11-10T09:54:46.279Z,3.63
2022-11-10T09:57:16.945Z,2.80
2022-11-10T09:59:44.714Z,3.10
2022-11-10T10:02:32.468Z,2.67
2022-11-10T10:05:25.130Z,3.20
2022-11-10T10:08:03.137Z,3.10
2022-11-10T10:10:37.357Z,3.50
2022-11-10T10:13:14.560Z,3.00
2022-11-10T10:15:49.701Z,2.80
2022-11-10T10:18:40.628Z,2.43
2022-11-10T10:21:32.355Z,3.30
2022-11-10T10:24:14.030Z,3.10
2022-11-10T10:26:54.073Z,2.93
2022-11-10T10:29:37.991Z,2.80
2022-11-10T10:32:12.607Z,3.70
2022-11-10T10:34:41.355Z,3.30
2022-11-10T10:37:26.088Z,2.93
2022-11-10T10:39:55.630Z,2.37
2022-11-10T10:42:33.292Z,3.63
2022-11-10T10:45:24.253Z,3.17
2022-11-10T10:47:54.533Z,3.30
2022-11-10T10:50:35.084Z,2.93
2022-11-10T10:53:22.511Z,3.47
2022-11-10T10:56:18.089Z,3.17
2022-11-10T10:59:02.354Z,2.97
2022-11-10T11:01:34.818Z,3.13
2022-11-10T11:04:35.803Z,3.30
2022-11-10T11:07:21.785Z,3.40
2022-11-10T11:09:50.944Z,3.00
2022-11-10T11:12:20.976Z,2.80
2022-11-10T11:14:49.000Z,2.50
2022-11-10T11:17:22.157Z,2.97
2022-11-10T11:19:59.806Z,2.70
2022-11-10T11:22:57.236Z,3.00
2022-11-10T11:25:35.018Z,3.43
2022-11-10T11:28:22.779Z,2.80
2022-11-10T11:31:28.815Z,3.27
2022-11-10T11:34:19.363Z,2.50
2022-11-10T11:37:13.055Z,3.13
2022-11-10T11:40:16.468Z,2.37
2022-11-10T11:43:08.306Z,2.90
2022-11-10T11:45:59.287Z,2.20
2022-11-10T11:48:56.951Z,2.63
2022-11-10T11:52:07.766Z,2.30
2022-11-10T11:55:07.555Z,2.87
2022-11-10T11:58:07.266Z,2.53
2022-11-10T12:01:06.678Z,1.83
2022-11-10T12:03:47.753Z,2.53
2022-11-10T12:06:57.381Z,1.90
2022-11-10T12:09:51.410Z,1.70
2022-11-10T12:12:43.861Z,2.17
2022-11-10T12:15:42.786Z,1.60
2022-11-10T12:18:48.527Z,2.40
2022-11-10T12:21:45.052Z,1.70
2022-11-10T12:24:55.255Z,1.70
2022-11-10T12:27:40.273Z,1.60
2022-11-10T12:30:18.314Z,1.80
2022-11-10T12:32:55.698Z,1.50
2022-11-10T12:35:28.664Z,1.87
2022-11-10T12:38:44.770Z,1.77
2022-11-10T12:41:16.769Z,1.80
2022-11-10T12:44:35.306Z,2.00
2022-11-10T12:47:07.200Z,1.73
2022-11-10T12:49:39.388Z,2.10
2022-11-10T12:52:19.714Z,1.53
2022-11-10T12:54:47.543Z,1.93
2022-11-10T12:57:26.489Z,1.90
2022-11-10T13:00:08.187Z,1.80
2022-11-10T13:02:45.239Z,2.00
2022-11-10T13:05:34.199Z,1.93
2022-11-10T13:08:24.628Z,1.57
2022-11-10T13:11:07.608Z,2.00
2022-11-10T13:13:47.038Z,2.00
2022-11-10T13:16:42.113Z,1.57
2022-11-10T13:19:11.696Z,1.50
2022-11-10T13:21:56.526Z,1.93
2022-11-10T13:24:29.665Z,1.57
2022-11-10T13:27:32.884Z,1.60
2022-11-10T13:30:00.476Z,1.30
2022-11-10T13:32:31.522Z,1.20
2022-11-10T13:35:29.734Z,1.50
2022-11-10T13:38:01.257Z,1.60
2022-11-10T13:40:32.998Z,1.60
2022-11-10T13:43:00.008Z,1.40
2022-11-10T13:45:38.529Z,1.57
2022-11-10T13:48:12.772Z,1.47
2022-11-10T13:51:00.839Z,1.73
2022-11-10T13:54:01.010Z,1.40
2022-11-10T13:57:19.578Z,1.77
2022-11-10T13:59:53.065Z,1.57
2022-11-10T14:02:39.131Z,1.57
2022-11-10T14:05:37.922Z,2.03
2022-11-10T14:08:36.321Z,1.30
2022-11-10T14:11:11.553Z,1.50
2022-11-10T14:14:00.621Z,1.73
2022-11-10T14:16:33.067Z,1.40
2022-11-10T14:19:39.342Z,1.53
2022-11-10T14:22:34.394Z,1.83
2022-11-10T14:25:15.169Z,1.80
2022-11-10T14:27:44.785Z,1.53
2022-11-10T14:30:27.698Z,1.83
2022-11-10T14:33:04.909Z,2.17
2022-11-10T14:35:54.029Z,2.00
2022-11-10T14:38:29.390Z,1.70
2022-11-10T14:41:04.010Z,1.20
2022-11-10T14:43:35.883Z,1.60
2022-11-10T14:46:06.070Z,1.67
2022-11-10T14:48:39.162Z,1.73
2022-11-10T14:51:16.867Z,2.10
2022-11-10T14:54:12.124Z,1.40
2022-11-10T14:56:42.445Z,1.60
2022-11-10T14:59:12.700Z,1.97
2022-11-10T15:01:50.041Z,1.87
2022-11-10T15:04:25.671Z,1.63
2022-11-10T15:06:53.604Z,2.10
2022-11-10T15:09:31.230Z,2.40
2022-11-10T15:12:20.055Z,2.30
2022-11-10T15:14:57.434Z,2.57
2022-11-10T15:17:46.590Z,1.87
2022-11-10T15:20:37.859Z,1.67
2022-11-10T15:23:30.494Z,2.00
2022-11-10T15:26:01.206Z,1.70
2022-11-10T15:28:34.891Z,1.80
2022-11-10T15:31:06.768Z,1.90
2022-11-10T15:33:37.359Z,2.00
2022-11-10T15:36:19.621Z,1.97
2022-11-10T15:39:17.009Z,1.57
2022-11-10T15:41:46.662Z,1.93
2022-11-10T15:44:17.422Z,1.40
2022-11-10T15:46:45.623Z,2.00
2022-11-10T15:49:30.552Z,2.53
2022-11-10T15:52:05.757Z,3.50
2022-11-10T15:54:35.771Z,2.70
2022-11-10T15:57:02.743Z,2.80
2022-11-10T15:59:30.003Z,2.40
2022-11-10T16:01:57.125Z,2.17
2022-11-10T16:04:27.414Z,1.70
2022-11-10T16:06:54.580Z,2.13
2022-11-10T16:09:21.566Z,2.30
2022-11-10T16:11:49.607Z,3.13
2022-11-10T16:14:18.575Z,2.40
2022-11-10T16:16:46.569Z,2.30
2022-11-10T16:19:13.605Z,1.97
2022-11-10T16:21:40.617Z,2.37
2022-11-10T16:24:07.688Z,2.20
2022-11-10T16:26:35.997Z,4.20
2022-11-10T16:29:03.350Z,3.90
2022-11-10T16:31:32.840Z,4.77
2022-11-10T16:33:59.702Z,3.90
2022-11-10T16:36:33.135Z,4.63
2022-11-10T16:39:11.139Z,5.03
2022-11-10T16:41:38.097Z,4.73
2022-11-10T16:44:06.017Z,4.57
2022-11-10T16:46:37.197Z,4.57
2022-11-10T16:49:09.578Z,4.17
2022-11-10T16:51:48.849Z,4.30
2022-11-10T16:54:16.665Z,3.87
2022-11-10T16:56:43.638Z,3.40
2022-11-10T16:59:11.318Z,3.47
2022-11-10T17:01:40.713Z,2.60
2022-11-10T17:04:13.082Z,3.07
2022-11-10T17:06:41.334Z,3.50
2022-11-10T17:09:20.077Z,2.87
2022-11-10T17:11:48.107Z,3.13
2022-11-10T17:14:16.561Z,3.20
2022-11-10T17:16:45.658Z,3.90
2022-11-10T17:19:24.370Z,3.20
2022-11-10T17:21:53.897Z,2.53
2022-11-10T17:24:22.099Z,2.27
2022-11-10T17:26:49.094Z,2.93
2022-11-10T17:29:21.069Z,4.63
2022-11-10T17:31:52.885Z,5.27
2022-11-10T17:34:19.849Z,4.53
2022-11-10T17:36:46.852Z,10.77
2022-11-10T17:39:17.686Z,9.13
2022-11-10T17:41:44.874Z,9.10
2022-11-10T17:44:15.272Z,8.57
2022-11-10T17:46:43.057Z,13.33
2022-11-10T17:49:10.074Z,10.30
2022-11-10T17:51:37.393Z,9.10
2022-11-10T17:54:05.798Z,8.30
2022-11-10T17:56:33.206Z,7.50
2022-11-10T17:59:00.344Z,9.50
2022-11-10T18:01:28.318Z,4.10
2022-11-10T18:03:55.317Z,6.87
2022-11-10T18:06:22.398Z,5.67
2022-11-10T18:08:49.328Z,5.73
2022-11-10T18:11:18.900Z,4.53
2022-11-10T18:13:46.147Z,4.37
2022-11-10T18:16:14.390Z,4.00
2022-11-10T18:18:41.637Z,5.70
2022-11-10T18:21:09.860Z,8.33
2022-11-10T18:23:36.829Z,13.63
2022-11-10T18:26:08.721Z,14.47
2022-11-10T18:28:35.897Z,12.60
2022-11-10T18:31:13.214Z,13.57
2022-11-10T18:33:40.743Z,9.00
2022-11-10T18:36:08.836Z,9.43
2022-11-10T18:38:37.162Z,9.40
2022-11-10T18:41:24.028Z,9.53
2022-11-10T18:43:54.092Z,9.30
2022-11-10T18:46:23.069Z,8.67
2022-11-10T18:48:50.659Z,7.27
2022-11-10T18:51:17.902Z,7.30
2022-11-10T18:53:46.894Z,8.27
2022-11-10T18:56:14.986Z,8.90
2022-11-10T18:58:42.344Z,8.00
2022-11-10T19:01:15.654Z,8.10
2022-11-10T19:03:45.292Z,6.20
2022-11-10T19:06:13.293Z,6.60
2022-11-10T19:08:43.547Z,7.07
2022-11-10T19:11:14.688Z,7.30
2022-11-10T19:13:42.407Z,6.83
2022-11-10T19:16:15.479Z,7.23
2022-11-10T19:18:43.747Z,6.50
2022-11-10T19:21:30.850Z,6.70
2022-11-10T19:23:59.997Z,5.63
2022-11-10T19:26:28.380Z,6.20
2022-11-10T19:28:58.447Z,7.60
2022-11-10T19:31:28.538Z,7.23
2022-11-10T19:33:57.008Z,5.90
2022-11-10T19:36:28.650Z,6.70
2022-11-10T19:38:59.678Z,6.80
2022-11-10T19:41:29.777Z,6.03
2022-11-10T19:43:59.303Z,6.37
2022-11-10T19:46:36.543Z,9.73
2022-11-10T19:49:06.329Z,6.47
2022-11-10T19:51:34.861Z,6.90
2022-11-10T19:54:03.188Z,7.30
2022-11-10T19:56:33.504Z,6.40
2022-11-10T19:59:01.537Z,6.67
2022-11-10T20:01:32.155Z,8.33
2022-11-10T20:04:01.031Z,7.80
2022-11-10T20:06:29.083Z,8.73
2022-11-10T20:08:58.072Z,9.80
2022-11-10T20:11:26.699Z,8.20
2022-11-10T20:13:57.224Z,9.17
2022-11-10T20:16:24.196Z,10.40
2022-11-10T20:18:51.113Z,6.20
2022-11-10T20:21:22.701Z,5.00
2022-11-10T20:23:56.780Z,4.13
2022-11-10T20:26:24.938Z,3.90
2022-11-10T20:28:51.912Z,4.20
2022-11-10T20:31:25.021Z,4.83
2022-11-10T20:33:54.401Z,4.90
2022-11-10T20:36:27.518Z,4.30
2022-11-10T20:38:57.057Z,5.13
2022-11-10T20:41:28.361Z,5.80
2022-11-10T20:43:55.799Z,5.87
2022-11-10T20:46:40.729Z,5.23
2022-11-10T20:49:11.283Z,6.27
2022-11-10T20:51:38.247Z,5.40
2022-11-10T20:54:06.568Z,5.13
2022-11-10T20:56:33.563Z,5.00
2022-11-10T20:59:00.723Z,5.23
2022-11-10T21:01:27.731Z,5.13
2022-11-10T21:03:55.086Z,5.10
2022-11-10T21:06:22.035Z,4.03
2022-11-10T21:08:49.187Z,4.53
2022-11-10T21:11:36.259Z,4.83
2022-11-10T21:14:03.173Z,4.90
2022-11-10T21:16:30.065Z,4.90
2022-11-10T21:18:57.342Z,6.97
2022-11-10T21:21:28.007Z,6.10
2022-11-10T21:23:57.307Z,5.40
2022-11-10T21:26:24.864Z,4.53
2022-11-10T21:28:52.859Z,5.27
2022-11-10T21:31:19.798Z,10.17
2022-11-10T21:33:46.687Z,5.70
2022-11-10T21:36:13.682Z,4.30
2022-11-10T21:38:42.296Z,4.30
2022-11-10T21:41:09.289Z,4.47
2022-11-10T21:43:38.656Z,4.40
2022-11-10T21:46:08.661Z,4.67
2022-11-10T21:48:36.055Z,4.53
2022-11-10T21:51:06.238Z,4.23
2022-11-10T21:53:34.681Z,6.20
2022-11-10T21:56:05.889Z,6.40
2022-11-10T21:58:37.351Z,7.20
2022-11-10T22:01:19.126Z,5.10
2022-11-10T22:03:46.145Z,5.70
2022-11-10T22:06:16.328Z,5.80
2022-11-10T22:08:46.009Z,6.00
2022-11-10T22:11:37.684Z,5.60
2022-11-10T22:14:31.035Z,5.13
2022-11-10T22:17:17.877Z,6.30
2022-11-10T22:19:45.421Z,6.20
2022-11-10T22:22:14.355Z,5.37
2022-11-10T22:24:41.420Z,5.20
2022-11-10T22:27:08.405Z,5.60
2022-11-10T22:29:35.305Z,6.10
2022-11-10T22:32:02.869Z,4.87
2022-11-10T22:34:30.223Z,5.13
2022-11-10T22:36:59.309Z,5.10
2022-11-10T22:39:46.354Z,5.43
2022-11-10T22:42:31.752Z,4.40
2022-11-10T22:44:59.108Z,4.93
2022-11-10T22:47:26.142Z,4.97
2022-11-10T22:49:53.104Z,5.10
2022-11-10T22:52:23.689Z,5.87
2022-11-10T22:54:50.834Z,5.67
2022-11-10T22:57:17.698Z,5.80
2022-11-10T22:59:44.650Z,5.50
2022-11-10T23:02:11.579Z,5.10
2022-11-10T23:04:38.583Z,5.57
2022-11-10T23:07:05.533Z,5.23
2022-11-10T23:09:34.765Z,4.90
2022-11-10T23:12:01.786Z,4.70
2022-11-10T23:14:28.663Z,5.63
2022-11-10T23:16:55.635Z,5.27
2022-11-10T23:19:22.496Z,5.80
2022-11-10T23:21:49.443Z,5.00
2022-11-10T23:24:20.872Z,6.00
2022-11-10T23:26:47.749Z,4.70
2022-11-10T23:29:14.693Z,5.17
2022-11-10T23:31:41.576Z,4.57
2022-11-10T23:34:08.489Z,5.03
2022-11-10T23:36:35.419Z,4.67
2022-11-10T23:39:02.281Z,3.90
2022-11-10T23:41:29.328Z,4.00
2022-11-10T23:43:56.453Z,4.23
2022-11-10T23:46:23.368Z,4.43
2022-11-10T23:48:50.359Z,5.43
2022-11-10T23:51:17.315Z,4.93
2022-11-10T23:53:44.230Z,6.20
2022-11-10T23:56:13.839Z,4.90
2022-11-10T23:58:41.416Z,3.97
